Flight Track Log - Related Links

Times and Time Zones

All times are in EDT time to prevent confusion due to time zone crossing. See the RPA4224 flight status page for this flight to view local times or setup timezone preferences in your user account.


Time Position Orientation Groundspeed Altitude Reporting Facility
EDT Latitude Longitude Course Direction KTS MPH feet Rate Location/Type
Fri 11:28:29 PM 41.9333 -87.9167 270° West 156 180 2,100  Level Chicago TRACON
Fri 11:29:23 PM 41.9167 -87.9833 251° West 203 234 3,600 1,705 Climbing Chicago TRACON
Fri 11:29:57 PM 41.9028 -88.0194 243° Southwest 218 251 4,600 2,463 Climbing Chicago Center
Fri 11:30:58 PM 41.8989 -88.1217 267° West 274 315 7,500 3,000 Climbing Chicago Center
Fri 11:31:00 PM 41.9277 -88.5075 264° West  Level FlightAware Approximate
Fri 11:31:59 PM 41.9017 -88.2333 272° West 278 320 10,700  Level Chicago Center
Fri 11:32:00 PM 41.9167 -88.6596 270° West  Level FlightAware Approximate
Fri 11:33:00 PM 41.9000 -88.8088 270° West  Level FlightAware Approximate
Fri 11:33:00 PM 41.9028 -88.3408 271° West 286 329 12,500  Level Chicago Center
Fri 11:34:01 PM 41.9056 -88.4697 272° West 344 396 14,200 1,918 Climbing Chicago Center
Fri 11:35:02 PM 41.9092 -88.6011 272° West 352 405 16,400 1,869 Climbing Chicago Center
Fri 11:36:03 PM 41.9122 -88.7483 272° West 369 425 18,000 1,672 Climbing Chicago Center
Fri 11:37:04 PM 41.9106 -88.8881 269° West 378 435 19,800 1,672 Climbing Chicago Center
Fri 11:38:05 PM 41.9053 -89.0344 267° West 389 448 21,400 1,525 Climbing Chicago Center
Fri 11:39:06 PM 41.9008 -89.1794 268° West 392 451 22,900 1,279 Climbing Chicago Center
Fri 11:40:07 PM 41.8781 -89.3272 258° West 399 459 24,000 545 Climbing Chicago Center
Fri 11:41:07 PM 41.8456 -89.4753 254° West 410 472 24,000  Level Chicago Center
Fri 11:42:08 PM 41.8111 -89.6217 253° West 412 474 24,000  Level Chicago Center
Fri 11:43:09 PM 41.7753 -89.7750 253° West 417 480 24,000  Level Chicago Center
Fri 11:44:10 PM 41.7481 -89.9275 257° West 420 483 24,000  Level Chicago Center
Fri 11:45:11 PM 41.7317 -90.0831 262° West 420 483 24,000  Level Chicago Center
Fri 11:46:12 PM 41.7214 -90.2411 265° West 422 486 24,000  Level Chicago Center
Fri 11:47:13 PM 41.7125 -90.4025 266° West 435 501 24,000  Level Chicago Center
Fri 11:48:13 PM 41.7069 -90.5597 267° West 430 495 24,000  Level Chicago Center
Fri 11:49:14 PM 41.6997 -90.7189 267° West 424 488 24,000  Level Chicago Center
Fri 11:50:15 PM 41.6928 -90.8750 267° West 423 487 24,000  Level Chicago Center
Fri 11:51:16 PM 41.6847 -91.0331 266° West 423 487 24,000  Level Chicago Center
Fri 11:52:16 PM 41.6781 -91.1906 267° West 423 487 24,000 -50 Level Chicago Center
Fri 11:53:17 PM 41.6639 -91.3756 264° West 422 486 23,900 -639 Descending Chicago Center
Fri 11:54:18 PM 41.6408 -91.5289 259° West 422 486 22,700 -1,230 Descending Chicago Center
Fri 11:55:19 PM 41.6192 -91.6803 259° West 417 480 21,400 -1,289 Descending Chicago Center
Fri 11:56:19 PM 41.6006 -91.8300 261° West 412 474 20,100 -1,240 Descending Chicago Center
Fri 11:57:20 PM 41.5864 -91.9761 263° West 400 460 18,900 -1,131 Descending Chicago Center
Fri 11:58:21 PM 41.5744 -92.1217 264° West 399 459 17,800 -1,091 Descending Chicago Center
Fri 11:59:21 PM 41.5631 -92.2647 264° West 393 452 16,700 -1,041 Descending Chicago Center
Sat 12:00:22 AM 41.5511 -92.4028 263° West 383 441 15,700 -1,082 Descending Chicago Center
Sat 12:01:23 AM 41.5386 -92.5381 263° West 372 428 14,500 -1,091 Descending Chicago Center
Sat 12:02:23 AM 41.5367 -92.6719 269° West 365 420 13,500 -992 Descending Chicago Center
Sat 12:03:24 AM 41.5361 -92.8106 270° West 349 402 12,500 -992 Descending Chicago Center
Sat 12:04:24 AM 41.5239 -92.9161 261° West 298 343 11,500 -1,339 Descending Chicago Center
Sat 12:05:25 AM 41.5125 -93.0200 262° West 292 336 9,800 -1,768 Descending Chicago Center
Sat 12:05:59 AM 41.5108 -93.0767 268° West 283 326 8,700 -1,618 Descending Minneapolis Center
Sat 12:06:54 AM 41.4919 -93.1689 255° West 277 319 7,400 -1,448 Descending Minneapolis Center
Sat 12:07:55 AM 41.4794 -93.2747 261° West 272 313 5,900 -1,279 Descending Minneapolis Center
Sat 12:08:56 AM 41.4683 -93.3692 261° West 262 302 4,800 -1,083 Descending Minneapolis Center
Sat 12:09:07 AM 41.4739 -93.3744 325° Northwest 256 295 4,600 -1,000 Descending Minneapolis Center
Sat 12:09:56 AM 41.4597 -93.4586 257° West 249 287 3,800 -984 Descending Minneapolis Center
Sat 12:10:08 AM 41.4650 -93.4633 326° Northwest 240 276 3,600 -667 Descending Minneapolis Center
Sat 12:11:08 AM 41.4558 -93.5522 262° West 232 267 3,000 -327 Descending Minneapolis Center
Sat 12:11:58 AM 41.4428 -93.6231 256° West 207 238 3,000  Level Minneapolis Center
Sat 12:12:09 AM 41.4486 -93.6300 318° Northwest 183 211 3,000 -197 Level Minneapolis Center
Sat 12:12:59 AM 41.4439 -93.6906 264° West 189 217 2,800 -295 Descending Minneapolis Center
Sat 12:13:10 AM 41.4556 -93.6936 349° North 169 194 2,700 -787 Descending Minneapolis Center
Sat 12:14:00 AM 41.4819 -93.7261 317° Northwest 174 200 2,000 -800 Descending Minneapolis Center
Sat 12:14:10 AM 41.4975 -93.7147 29° Northeast 162 186 1,900 -800 Descending Minneapolis Center
Sat 12:15:00 AM 41.5156 -93.6925 43° Northeast 146 168 1,200 -787 Descending Minneapolis Center
Sat 12:15:11 AM 41.5242 -93.6781 51° Northeast 136 157 1,100 -295 Descending Minneapolis Center
Sat 12:16:01 AM 41.5350 -93.6564 56° Northeast 136 157 900 -240 Descending Minneapolis Center

Login

Don't have an account? Register now (free) for customized features, flight alerts, and more!